createdAt,value
2019-05-20T00:04:54.658Z,15.57
2019-05-20T00:11:00.646Z,14.90
2019-05-20T00:17:06.730Z,14.73
2019-05-20T00:23:12.657Z,15.57
2019-05-20T00:29:18.963Z,15.10
2019-05-20T00:35:24.780Z,14.07
2019-05-20T00:41:30.588Z,14.87
2019-05-20T00:47:37.584Z,13.70
2019-05-20T00:53:43.886Z,14.00
2019-05-20T00:59:49.775Z,14.90
2019-05-20T01:05:55.814Z,14.67
2019-05-20T01:12:02.064Z,15.90
2019-05-20T01:18:08.276Z,16.93
2019-05-20T01:24:14.521Z,18.20
2019-05-20T01:30:21.284Z,24.27
2019-05-20T01:36:27.417Z,26.17
2019-05-20T01:42:33.212Z,20.30
2019-05-20T01:48:39.119Z,16.10
2019-05-20T01:54:45.193Z,15.87
2019-05-20T02:00:51.410Z,17.27
2019-05-20T02:06:58.898Z,17.23
2019-05-20T02:13:04.980Z,17.80
2019-05-20T02:19:11.117Z,19.33
2019-05-20T02:25:17.034Z,13.93
2019-05-20T02:31:22.772Z,17.27
2019-05-20T02:37:28.777Z,17.43
2019-05-20T02:43:35.178Z,19.77
2019-05-20T02:49:40.943Z,21.53
2019-05-20T02:55:46.821Z,25.07
2019-05-20T03:01:52.927Z,37.93
2019-05-20T03:07:59.345Z,23.80
2019-05-20T03:14:05.605Z,21.90
2019-05-20T03:20:11.513Z,30.07
2019-05-20T03:26:17.331Z,61.20
2019-05-20T03:32:25.785Z,64.10
2019-05-20T03:38:31.595Z,54.53
2019-05-20T03:44:37.378Z,62.63
2019-05-20T03:50:43.114Z,61.90
2019-05-20T03:56:49.655Z,59.23
2019-05-20T04:02:58.505Z,53.63
2019-05-20T04:09:05.462Z,54.70
2019-05-20T04:15:11.563Z,56.93
2019-05-20T04:21:17.421Z,55.47
2019-05-20T04:27:23.195Z,59.57
2019-05-20T04:33:29.191Z,66.10
2019-05-20T04:39:35.158Z,72.37
2019-05-20T04:45:41.095Z,74.27
2019-05-20T04:51:46.973Z,77.30
2019-05-20T04:57:52.965Z,69.33
2019-05-20T05:03:58.767Z,69.90
2019-05-20T05:10:05.009Z,60.47
2019-05-20T05:16:10.891Z,64.80
2019-05-20T05:22:16.795Z,56.10
2019-05-20T05:28:22.593Z,57.67
2019-05-20T05:34:28.922Z,54.47
2019-05-20T05:40:35.407Z,51.53
2019-05-20T05:46:41.156Z,56.13
2019-05-20T05:52:46.990Z,55.43
2019-05-20T05:58:53.581Z,57.80
2019-05-20T06:04:59.918Z,63.63
2019-05-20T06:11:05.677Z,63.07
2019-05-20T06:17:11.490Z,63.93
2019-05-20T06:23:17.330Z,57.83
2019-05-20T06:29:23.094Z,51.80
2019-05-20T06:35:29.101Z,48.53
2019-05-20T06:41:35.302Z,44.20
2019-05-20T06:47:41.062Z,42.17
2019-05-20T06:53:47.769Z,43.97
2019-05-20T06:59:53.595Z,49.13
2019-05-20T07:05:59.360Z,44.53
2019-05-20T07:12:05.949Z,37.17
2019-05-20T07:18:11.857Z,38.37
2019-05-20T07:24:17.715Z,46.87
2019-05-20T07:30:24.102Z,44.33
2019-05-20T07:36:29.843Z,49.13
2019-05-20T07:42:35.797Z,40.37
2019-05-20T07:48:43.126Z,38.57
2019-05-20T07:54:49.818Z,32.23
2019-05-20T08:00:55.617Z,40.53
2019-05-20T08:07:01.556Z,37.93
2019-05-20T08:13:07.414Z,32.20
2019-05-20T08:19:13.446Z,48.53
2019-05-20T08:25:19.776Z,35.80
2019-05-20T08:37:45.811Z,34.30
2019-05-20T08:43:49.405Z,33.80
2019-05-20T08:49:55.500Z,32.53
2019-05-20T08:56:01.435Z,32.57
2019-05-20T09:02:07.617Z,29.50
2019-05-20T09:08:13.421Z,28.57
2019-05-20T09:14:19.235Z,31.77
2019-05-20T09:20:25.421Z,31.70
2019-05-20T09:26:31.351Z,32.20
2019-05-20T09:32:42.345Z,30.20
2019-05-20T09:38:45.982Z,27.97
2019-05-20T09:44:51.863Z,29.50
2019-05-20T09:50:57.919Z,30.33
2019-05-20T09:57:03.734Z,27.83
2019-05-20T10:03:09.913Z,27.77
2019-05-20T10:09:15.747Z,28.20
2019-05-20T10:15:22.721Z,27.57
2019-05-20T10:21:28.838Z,28.93
2019-05-20T10:27:35.356Z,30.10
2019-05-20T10:33:41.246Z,30.23
2019-05-20T10:39:47.444Z,29.57
2019-05-20T10:45:53.325Z,30.00
2019-05-20T10:51:59.075Z,33.43
2019-05-20T10:58:04.875Z,29.83
2019-05-20T11:04:10.726Z,30.83
2019-05-20T11:10:16.965Z,31.93
2019-05-20T11:16:22.791Z,31.73
2019-05-20T11:22:29.110Z,34.30
2019-05-20T11:28:35.037Z,35.23
2019-05-20T11:34:40.869Z,35.10
2019-05-20T11:40:47.164Z,38.43
2019-05-20T11:46:53.366Z,35.50
2019-05-20T11:52:59.415Z,33.70
2019-05-20T11:59:06.505Z,33.77
2019-05-20T12:05:12.759Z,33.57
2019-05-20T12:11:18.532Z,35.87
2019-05-20T12:17:24.695Z,35.63
2019-05-20T12:23:30.886Z,36.73
2019-05-20T12:29:54.674Z,39.00
2019-05-20T12:36:02.267Z,36.73
2019-05-20T12:42:08.139Z,40.77
2019-05-20T12:48:14.127Z,40.10
2019-05-20T12:54:19.831Z,38.87
2019-05-20T13:00:26.058Z,37.87
2019-05-20T13:06:31.841Z,38.40
2019-05-20T13:12:39.661Z,38.00
2019-05-20T13:18:55.334Z,35.00
2019-05-20T13:24:53.321Z,36.40
2019-05-20T13:30:59.093Z,37.03
2019-05-20T13:37:04.893Z,36.80
2019-05-20T13:43:12.678Z,36.87
2019-05-20T13:49:18.561Z,37.17
2019-05-20T13:55:27.977Z,37.00
2019-05-20T14:01:34.177Z,37.47
2019-05-20T14:07:40.676Z,39.77
2019-05-20T14:13:46.500Z,42.23
2019-05-20T14:19:52.554Z,42.73
2019-05-20T14:25:58.897Z,40.63
2019-05-20T14:32:04.730Z,42.17
2019-05-20T14:38:10.507Z,41.83
2019-05-20T14:44:16.453Z,39.37
2019-05-20T14:50:22.635Z,38.23
2019-05-20T14:56:28.488Z,34.83
2019-05-20T15:02:34.258Z,33.63
2019-05-20T15:08:44.434Z,32.87
2019-05-20T15:14:50.645Z,38.37
2019-05-20T15:20:57.238Z,40.00
2019-05-20T15:27:03.171Z,36.63
2019-05-20T15:33:09.058Z,34.33
2019-05-20T15:39:14.922Z,35.37
2019-05-20T15:45:21.024Z,35.77
2019-05-20T15:51:26.925Z,34.30
2019-05-20T15:57:33.191Z,37.10
2019-05-20T16:03:39.174Z,38.17
2019-05-20T16:09:45.227Z,39.67
2019-05-20T16:15:51.529Z,41.33
2019-05-20T16:21:57.520Z,41.53
2019-05-20T16:28:03.551Z,42.00
2019-05-20T16:34:09.439Z,40.63
2019-05-20T16:40:15.582Z,41.47
2019-05-20T16:46:21.626Z,42.23
2019-05-20T16:52:27.466Z,40.13
2019-05-20T16:58:33.247Z,40.20
2019-05-20T17:04:39.074Z,41.00
2019-05-20T17:10:45.164Z,38.00
2019-05-20T17:16:51.072Z,37.80
2019-05-20T17:22:56.970Z,37.47
2019-05-20T17:29:02.765Z,37.60
2019-05-20T17:35:09.110Z,37.17
2019-05-20T17:41:14.879Z,36.07
2019-05-20T17:47:21.004Z,36.10
2019-05-20T17:53:27.388Z,35.80
2019-05-20T17:59:33.205Z,36.50
2019-05-20T18:05:39.361Z,33.97
2019-05-20T18:11:46.013Z,34.90
2019-05-20T18:17:52.657Z,33.93
2019-05-20T18:23:58.632Z,34.93
2019-05-20T18:30:04.721Z,32.07
2019-05-20T18:36:10.814Z,31.37
2019-05-20T18:42:17.360Z,31.63
2019-05-20T18:48:23.408Z,30.37
2019-05-20T18:54:29.712Z,28.40
2019-05-20T19:00:35.917Z,29.00
2019-05-20T19:06:42.326Z,28.90
2019-05-20T19:12:48.243Z,29.07
2019-05-20T19:18:55.127Z,31.90
2019-05-20T19:25:02.977Z,33.03
2019-05-20T19:31:08.937Z,33.20
2019-05-20T19:37:14.961Z,35.00
2019-05-20T19:43:20.875Z,34.23
2019-05-20T19:49:27.188Z,35.53
2019-05-20T19:55:33.028Z,36.80
2019-05-20T20:01:38.827Z,37.30
2019-05-20T20:07:44.663Z,37.97
2019-05-20T20:13:50.418Z,39.20
2019-05-20T20:19:58.262Z,38.10
2019-05-20T20:26:04.108Z,39.03
2019-05-20T20:32:10.199Z,38.20
2019-05-20T20:38:16.161Z,37.57
2019-05-20T20:44:21.995Z,38.20
2019-05-20T20:50:28.079Z,39.70
2019-05-20T20:56:34.407Z,40.07
2019-05-20T21:02:52.107Z,39.47
2019-05-20T21:08:48.005Z,39.80
2019-05-20T21:14:53.820Z,34.97
2019-05-20T21:20:59.627Z,40.27
2019-05-20T21:27:05.618Z,39.17
2019-05-20T21:33:11.548Z,36.37
2019-05-20T21:39:17.604Z,39.13
2019-05-20T21:45:23.453Z,35.33
2019-05-20T21:51:29.277Z,42.47
2019-05-20T21:57:35.326Z,43.23
2019-05-20T22:03:41.367Z,43.73
2019-05-20T22:09:47.174Z,43.33
2019-05-20T22:15:53.353Z,41.87
2019-05-20T22:22:07.002Z,44.97
2019-05-20T22:28:13.182Z,41.90
2019-05-20T22:34:19.186Z,36.23
2019-05-20T22:40:25.238Z,34.30
2019-05-20T22:46:31.046Z,33.23
2019-05-20T22:52:37.018Z,31.57
2019-05-20T22:58:42.984Z,33.30
2019-05-20T23:04:48.961Z,43.27
2019-05-20T23:10:54.845Z,46.27
2019-05-20T23:17:00.867Z,48.20
2019-05-20T23:23:06.678Z,48.47
2019-05-20T23:29:12.446Z,52.60
2019-05-20T23:35:18.531Z,51.33
2019-05-20T23:41:24.402Z,54.33
2019-05-20T23:47:30.304Z,54.60
2019-05-20T23:53:37.913Z,52.27
2019-05-20T23:59:43.657Z,34.77
